sensor_id;sensor_type;location;lat;lon;timestamp;temperature;humidity
20315;DHT22;10315;50.958;13.080;2023-02-28T00:09:46;-2.40;99.90
20315;DHT22;10315;50.958;13.080;2023-02-28T00:19:48;-2.40;99.90
20315;DHT22;10315;50.958;13.080;2023-02-28T00:29:51;-2.60;99.90
20315;DHT22;10315;50.958;13.080;2023-02-28T00:39:54;-2.90;99.90
20315;DHT22;10315;50.958;13.080;2023-02-28T00:49:57;-3.00;99.90
20315;DHT22;10315;50.958;13.080;2023-02-28T00:59:59;-3.00;99.90
20315;DHT22;10315;50.958;13.080;2023-02-28T01:10:02;-2.90;99.90
20315;DHT22;10315;50.958;13.080;2023-02-28T01:20:06;-3.10;99.90
20315;DHT22;10315;50.958;13.080;2023-02-28T01:30:13;-3.20;99.90
20315;DHT22;10315;50.958;13.080;2023-02-28T01:40:18;-3.40;99.90
20315;DHT22;10315;50.958;13.080;2023-02-28T01:50:24;-3.70;99.90
20315;DHT22;10315;50.958;13.080;2023-02-28T02:00:29;-3.80;99.90
20315;DHT22;10315;50.958;13.080;2023-02-28T02:10:34;-3.50;99.90
20315;DHT22;10315;50.958;13.080;2023-02-28T02:21:03;-3.40;99.90
20315;DHT22;10315;50.958;13.080;2023-02-28T02:31:33;-3.20;99.90
20315;DHT22;10315;50.958;13.080;2023-02-28T02:41:46;-3.00;99.90
20315;DHT22;10315;50.958;13.080;2023-02-28T02:51:49;-3.00;99.90
20315;DHT22;10315;50.958;13.080;2023-02-28T03:01:56;-3.20;99.90
20315;DHT22;10315;50.958;13.080;2023-02-28T03:11:59;-3.30;99.90
20315;DHT22;10315;50.958;13.080;2023-02-28T03:22:18;-3.20;99.90
20315;DHT22;10315;50.958;13.080;2023-02-28T03:32:23;-3.20;99.90
20315;DHT22;10315;50.958;13.080;2023-02-28T03:42:29;-3.30;99.90
20315;DHT22;10315;50.958;13.080;2023-02-28T03:52:33;-3.30;99.90
20315;DHT22;10315;50.958;13.080;2023-02-28T04:02:37;-3.60;99.90
20315;DHT22;10315;50.958;13.080;2023-02-28T04:12:39;-3.70;99.90
20315;DHT22;10315;50.958;13.080;2023-02-28T04:22:43;-3.60;99.90
20315;DHT22;10315;50.958;13.080;2023-02-28T04:32:46;-3.60;99.90
20315;DHT22;10315;50.958;13.080;2023-02-28T04:42:49;-3.40;99.90
20315;DHT22;10315;50.958;13.080;2023-02-28T04:52:50;-3.20;99.90
20315;DHT22;10315;50.958;13.080;2023-02-28T05:02:53;-3.30;99.90
20315;DHT22;10315;50.958;13.080;2023-02-28T05:12:55;-3.30;99.90
20315;DHT22;10315;50.958;13.080;2023-02-28T05:22:58;-3.30;99.90
20315;DHT22;10315;50.958;13.080;2023-02-28T05:33:00;-3.50;99.90
20315;DHT22;10315;50.958;13.080;2023-02-28T05:43:03;-3.70;99.90
20315;DHT22;10315;50.958;13.080;2023-02-28T05:53:05;-4.00;99.90
20315;DHT22;10315;50.958;13.080;2023-02-28T06:03:08;-4.20;99.90
20315;DHT22;10315;50.958;13.080;2023-02-28T06:13:09;-4.30;99.90
20315;DHT22;10315;50.958;13.080;2023-02-28T06:23:22;-4.40;99.90
20315;DHT22;10315;50.958;13.080;2023-02-28T06:33:23;-4.20;99.90
20315;DHT22;10315;50.958;13.080;2023-02-28T06:43:33;-3.80;99.90
20315;DHT22;10315;50.958;13.080;2023-02-28T06:53:37;-3.10;99.90
20315;DHT22;10315;50.958;13.080;2023-02-28T07:03:40;-2.00;99.90
20315;DHT22;10315;50.958;13.080;2023-02-28T07:13:42;-1.10;99.90
20315;DHT22;10315;50.958;13.080;2023-02-28T07:23:45;-0.90;99.90
20315;DHT22;10315;50.958;13.080;2023-02-28T07:33:46;-0.50;99.90
20315;DHT22;10315;50.958;13.080;2023-02-28T07:43:54;4.00;99.90
20315;DHT22;10315;50.958;13.080;2023-02-28T07:53:57;7.60;99.90
20315;DHT22;10315;50.958;13.080;2023-02-28T08:04:06;9.00;99.90
20315;DHT22;10315;50.958;13.080;2023-02-28T08:14:08;9.70;99.90
20315;DHT22;10315;50.958;13.080;2023-02-28T08:24:11;10.10;99.90
20315;DHT22;10315;50.958;13.080;2023-02-28T08:34:14;4.70;99.90
20315;DHT22;10315;50.958;13.080;2023-02-28T17:32:40;-1.50;99.90
20315;DHT22;10315;50.958;13.080;2023-02-28T17:42:42;-1.50;99.90
20315;DHT22;10315;50.958;13.080;2023-02-28T17:52:45;-1.70;99.90
20315;DHT22;10315;50.958;13.080;2023-02-28T18:02:47;-1.80;99.90
20315;DHT22;10315;50.958;13.080;2023-02-28T18:12:51;-1.90;99.90
20315;DHT22;10315;50.958;13.080;2023-02-28T18:22:53;-2.10;99.90
20315;DHT22;10315;50.958;13.080;2023-02-28T18:32:56;-2.10;99.90
20315;DHT22;10315;50.958;13.080;2023-02-28T18:42:58;-2.30;99.90
20315;DHT22;10315;50.958;13.080;2023-02-28T18:53:01;-2.40;99.90
20315;DHT22;10315;50.958;13.080;2023-02-28T19:03:03;-2.60;99.90
20315;DHT22;10315;50.958;13.080;2023-02-28T19:13:05;-2.70;99.90
20315;DHT22;10315;50.958;13.080;2023-02-28T19:23:07;-2.50;99.90
20315;DHT22;10315;50.958;13.080;2023-02-28T19:33:12;-2.50;99.90
20315;DHT22;10315;50.958;13.080;2023-02-28T19:43:13;-2.60;99.90
20315;DHT22;10315;50.958;13.080;2023-02-28T19:53:16;-2.70;99.90
20315;DHT22;10315;50.958;13.080;2023-02-28T20:03:18;-2.80;99.90
20315;DHT22;10315;50.958;13.080;2023-02-28T20:13:21;-2.90;99.90
20315;DHT22;10315;50.958;13.080;2023-02-28T20:23:26;-3.30;99.90
20315;DHT22;10315;50.958;13.080;2023-02-28T20:33:33;-3.50;99.90
20315;DHT22;10315;50.958;13.080;2023-02-28T20:43:35;-3.30;99.90
20315;DHT22;10315;50.958;13.080;2023-02-28T20:53:38;-3.20;99.90
20315;DHT22;10315;50.958;13.080;2023-02-28T21:03:39;-3.60;99.90
20315;DHT22;10315;50.958;13.080;2023-02-28T21:13:44;-4.00;99.90
20315;DHT22;10315;50.958;13.080;2023-02-28T21:23:46;-4.20;99.90
20315;DHT22;10315;50.958;13.080;2023-02-28T21:33:51;-4.50;99.90
20315;DHT22;10315;50.958;13.080;2023-02-28T21:43:53;-4.60;99.90
20315;DHT22;10315;50.958;13.080;2023-02-28T21:53:57;-4.70;99.90
20315;DHT22;10315;50.958;13.080;2023-02-28T22:04:00;-4.90;99.90
20315;DHT22;10315;50.958;13.080;2023-02-28T22:14:07;-4.90;99.90
20315;DHT22;10315;50.958;13.080;2023-02-28T22:24:09;-5.20;99.90
20315;DHT22;10315;50.958;13.080;2023-02-28T22:34:12;-5.20;99.90
20315;DHT22;10315;50.958;13.080;2023-02-28T22:44:14;-5.30;99.90
20315;DHT22;10315;50.958;13.080;2023-02-28T22:54:17;-4.90;99.90
20315;DHT22;10315;50.958;13.080;2023-02-28T23:04:19;-4.60;99.90
20315;DHT22;10315;50.958;13.080;2023-02-28T23:14:26;-4.70;99.90
20315;DHT22;10315;50.958;13.080;2023-02-28T23:24:30;-5.10;99.90
20315;DHT22;10315;50.958;13.080;2023-02-28T23:34:36;-5.50;99.90
20315;DHT22;10315;50.958;13.080;2023-02-28T23:44:39;-5.80;99.90
20315;DHT22;10315;50.958;13.080;2023-02-28T23:54:42;-5.90;99.90
